createdAt,value
2018-08-04T00:00:23.734Z,100.00
2018-08-04T00:02:52.884Z,100.00
2018-08-04T00:05:22.085Z,100.00
2018-08-04T00:07:51.302Z,100.00
2018-08-04T00:10:21.607Z,100.00
2018-08-04T00:12:51.907Z,100.00
2018-08-04T00:15:21.333Z,100.00
2018-08-04T00:17:50.683Z,100.00
2018-08-04T00:20:19.842Z,100.00
2018-08-04T00:22:49.022Z,100.00
2018-08-04T00:25:18.363Z,100.00
2018-08-04T00:27:47.626Z,100.00
2018-08-04T00:30:16.838Z,100.00
2018-08-04T00:32:46.028Z,100.00
2018-08-04T00:35:15.237Z,100.00
2018-08-04T00:37:44.431Z,100.00
2018-08-04T00:40:14.055Z,100.00
2018-08-04T00:42:43.300Z,100.00
2018-08-04T00:45:12.420Z,100.00
2018-08-04T00:47:41.518Z,100.00
2018-08-04T00:50:11.089Z,100.00
2018-08-04T00:52:40.226Z,100.00
2018-08-04T00:55:09.539Z,100.00
2018-08-04T00:57:38.616Z,100.00
2018-08-04T01:00:07.873Z,100.00
2018-08-04T01:02:37.018Z,100.00
2018-08-04T01:05:06.077Z,100.00
2018-08-04T01:07:35.105Z,100.00
2018-08-04T01:10:05.559Z,100.00
2018-08-04T01:12:34.952Z,100.00
2018-08-04T01:15:04.121Z,100.00
2018-08-04T01:17:33.459Z,100.00
2018-08-04T01:20:04.497Z,100.00
2018-08-04T01:22:34.538Z,100.00
2018-08-04T01:25:03.725Z,100.00
2018-08-04T01:27:32.989Z,100.00
2018-08-04T01:30:02.281Z,100.00
2018-08-04T01:32:31.385Z,100.00
2018-08-04T01:35:00.621Z,100.00
2018-08-04T01:37:29.925Z,100.00
2018-08-04T01:39:58.989Z,100.00
2018-08-04T01:42:28.463Z,100.00
2018-08-04T01:44:57.481Z,100.00
2018-08-04T01:47:26.721Z,100.00
2018-08-04T01:49:55.994Z,100.00
2018-08-04T01:52:25.190Z,100.00
2018-08-04T01:54:54.565Z,100.00
2018-08-04T01:57:23.783Z,100.00
2018-08-04T01:59:52.990Z,100.00
2018-08-04T02:02:22.054Z,100.00
2018-08-04T02:04:51.185Z,100.00
2018-08-04T02:07:20.808Z,100.00
2018-08-04T02:09:50.149Z,100.00
2018-08-04T02:12:19.409Z,100.00
2018-08-04T02:14:48.498Z,100.00
2018-08-04T02:17:17.683Z,100.00
2018-08-04T02:19:46.874Z,100.00
2018-08-04T02:22:16.069Z,100.00
2018-08-04T02:24:45.301Z,100.00
2018-08-04T02:27:14.470Z,100.00
2018-08-04T02:29:43.664Z,100.00
2018-08-04T02:32:12.881Z,100.00
2018-08-04T02:34:42.078Z,100.00
2018-08-04T02:37:11.591Z,100.00
2018-08-04T02:39:40.738Z,100.00
2018-08-04T02:42:09.482Z,100.00
2018-08-04T02:44:38.260Z,100.00
2018-08-04T02:47:07.057Z,100.00
2018-08-04T02:49:35.885Z,100.00
2018-08-04T02:52:04.712Z,100.00
2018-08-04T02:54:33.665Z,100.00
2018-08-04T02:57:02.439Z,100.00
2018-08-04T02:59:31.165Z,100.00
2018-08-04T03:01:59.948Z,100.00
2018-08-04T03:04:28.708Z,100.00
2018-08-04T03:06:57.434Z,100.00
2018-08-04T03:09:26.166Z,100.00
2018-08-04T03:11:54.904Z,100.00
2018-08-04T03:14:23.721Z,100.00
2018-08-04T03:16:52.475Z,100.00
2018-08-04T03:19:21.327Z,100.00
2018-08-04T03:21:50.082Z,100.00
2018-08-04T03:24:18.953Z,100.00
2018-08-04T03:26:47.774Z,100.00
2018-08-04T03:29:16.631Z,100.00
2018-08-04T03:31:45.407Z,100.00
2018-08-04T03:34:14.301Z,100.00
2018-08-04T03:36:43.099Z,100.00
2018-08-04T03:39:12.564Z,100.00
2018-08-04T03:41:42.228Z,100.00
2018-08-04T03:44:10.963Z,100.00
2018-08-04T03:46:39.704Z,100.00
2018-08-04T03:49:08.454Z,100.00
2018-08-04T03:51:37.255Z,99.75
2018-08-04T03:54:05.973Z,98.43
2018-08-04T03:56:34.684Z,93.56
2018-08-04T03:59:03.401Z,85.75
2018-08-04T04:01:35.062Z,78.03
2018-08-04T04:04:05.497Z,73.79
2018-08-04T04:06:34.259Z,71.20
2018-08-04T04:09:03.104Z,67.44
2018-08-04T04:11:31.828Z,65.33
2018-08-04T04:14:00.567Z,62.56
2018-08-04T04:16:29.352Z,60.52
2018-08-04T04:18:58.116Z,57.41
2018-08-04T04:21:26.901Z,55.01
2018-08-04T04:23:55.678Z,51.76
2018-08-04T04:26:24.427Z,48.93
2018-08-04T04:28:53.186Z,45.86
2018-08-04T04:31:21.930Z,46.60
2018-08-04T04:33:50.668Z,43.32
2018-08-04T04:36:19.418Z,42.62
2018-08-04T04:38:48.154Z,39.87
2018-08-04T04:41:16.974Z,41.17
2018-08-04T04:43:45.759Z,39.97
2018-08-04T04:46:14.518Z,38.56
2018-08-04T04:48:43.578Z,37.29
2018-08-04T04:51:12.345Z,36.24
2018-08-04T04:53:41.054Z,35.77
2018-08-04T04:56:09.774Z,35.41
2018-08-04T04:58:38.479Z,34.42
2018-08-04T05:01:07.266Z,33.10
2018-08-04T05:03:35.993Z,33.34
2018-08-04T05:06:04.767Z,33.68
2018-08-04T05:08:33.527Z,36.37
2018-08-04T05:11:02.246Z,38.42
2018-08-04T05:13:31.022Z,38.31
2018-08-04T05:15:59.771Z,38.47
2018-08-04T05:18:28.505Z,38.13
2018-08-04T05:20:57.235Z,35.98
2018-08-04T05:23:25.963Z,38.38
2018-08-04T05:25:54.728Z,38.52
2018-08-04T05:28:23.467Z,41.72
2018-08-04T05:30:52.239Z,39.58
2018-08-04T05:33:21.159Z,40.42
2018-08-04T05:35:50.013Z,39.94
2018-08-04T05:38:18.835Z,37.31
2018-08-04T05:40:47.563Z,35.09
2018-08-04T05:43:16.340Z,34.52
2018-08-04T05:45:45.073Z,36.66
2018-08-04T05:48:13.798Z,34.65
2018-08-04T05:50:42.611Z,35.09
2018-08-04T05:53:11.335Z,35.12
2018-08-04T05:55:40.170Z,34.67
2018-08-04T05:58:09.018Z,34.70
2018-08-04T06:00:37.807Z,32.67
2018-08-04T06:03:07.467Z,32.86
2018-08-04T06:05:36.278Z,31.02
2018-08-04T06:08:05.361Z,31.09
2018-08-04T06:10:34.147Z,28.83
2018-08-04T06:13:02.938Z,30.20
2018-08-04T06:15:31.838Z,29.98
2018-08-04T06:18:00.605Z,29.46
2018-08-04T06:20:29.359Z,30.24
2018-08-04T06:22:58.112Z,30.17
2018-08-04T06:25:26.879Z,27.70
2018-08-04T06:27:55.784Z,28.22
2018-08-04T06:30:24.563Z,27.98
2018-08-04T06:32:53.447Z,29.56
2018-08-04T06:35:22.142Z,29.56
2018-08-04T06:37:51.070Z,33.41
2018-08-04T06:40:19.849Z,34.87
2018-08-04T06:42:48.538Z,33.70
2018-08-04T06:45:17.289Z,30.44
2018-08-04T06:47:46.058Z,33.12
2018-08-04T06:50:14.856Z,32.09
2018-08-04T06:52:43.629Z,33.21
2018-08-04T06:55:12.337Z,32.67
2018-08-04T06:57:41.105Z,31.86
2018-08-04T07:00:09.910Z,32.29
2018-08-04T07:02:38.642Z,33.67
2018-08-04T07:05:07.399Z,32.83
2018-08-04T07:07:36.134Z,34.06
2018-08-04T07:10:05.244Z,31.60
2018-08-04T07:12:34.067Z,30.95
2018-08-04T07:15:02.860Z,33.17
2018-08-04T07:17:31.585Z,30.58
2018-08-04T07:20:00.317Z,33.10
2018-08-04T07:22:29.033Z,32.57
2018-08-04T07:24:57.822Z,31.63
2018-08-04T07:27:31.937Z,30.25
2018-08-04T07:30:00.911Z,30.32
2018-08-04T07:32:29.626Z,32.17
2018-08-04T07:34:58.366Z,30.96
2018-08-04T07:37:27.064Z,30.72
2018-08-04T07:39:55.757Z,29.49
2018-08-04T07:42:24.482Z,30.63
2018-08-04T07:44:53.198Z,31.83
2018-08-04T07:47:21.961Z,32.12
2018-08-04T07:49:50.690Z,31.54
2018-08-04T07:52:19.435Z,30.63
2018-08-04T07:54:48.243Z,30.14
2018-08-04T07:57:16.953Z,28.95
2018-08-04T07:59:45.680Z,30.59
2018-08-04T08:02:14.393Z,31.22
2018-08-04T08:04:43.106Z,29.46
2018-08-04T08:07:11.837Z,27.76
2018-08-04T08:09:40.525Z,29.54
2018-08-04T08:12:09.200Z,29.91
2018-08-04T08:14:38.821Z,30.93
2018-08-04T08:17:07.578Z,31.74
2018-08-04T08:19:36.277Z,31.03
2018-08-04T08:22:04.993Z,31.13
2018-08-04T08:24:33.689Z,29.81
2018-08-04T08:27:02.407Z,30.14
2018-08-04T08:29:31.112Z,30.43
2018-08-04T08:31:59.820Z,30.42
2018-08-04T08:34:28.509Z,30.94
2018-08-04T08:36:57.212Z,30.01
2018-08-04T08:39:25.945Z,28.59
2018-08-04T08:41:54.802Z,25.73
2018-08-04T08:44:23.497Z,27.38
2018-08-04T08:46:52.226Z,28.71
2018-08-04T08:49:20.929Z,28.81
2018-08-04T08:51:49.625Z,28.25
2018-08-04T08:54:18.376Z,28.41
2018-08-04T08:56:47.086Z,31.49
2018-08-04T08:59:15.834Z,28.84
2018-08-04T09:01:44.573Z,30.15
2018-08-04T09:04:13.262Z,31.23
2018-08-04T09:06:41.949Z,30.09
2018-08-04T09:09:11.329Z,29.88
2018-08-04T09:11:40.057Z,29.82
2018-08-04T09:14:09.999Z,32.10
2018-08-04T09:16:38.965Z,31.76
2018-08-04T09:19:07.695Z,30.23
2018-08-04T09:21:36.396Z,30.98
2018-08-04T09:24:05.200Z,30.96
2018-08-04T09:26:33.894Z,33.27
2018-08-04T09:29:02.730Z,33.11
2018-08-04T09:31:31.424Z,32.72
2018-08-04T09:34:00.133Z,33.70
2018-08-04T09:36:29.030Z,32.21
2018-08-04T09:38:57.782Z,30.28
2018-08-04T09:41:26.530Z,30.84
2018-08-04T09:43:55.245Z,29.27
2018-08-04T09:46:24.138Z,28.28
2018-08-04T09:48:52.990Z,29.69
2018-08-04T09:51:21.694Z,27.38
2018-08-04T09:53:50.410Z,28.59
2018-08-04T09:56:19.190Z,29.08
2018-08-04T09:58:47.905Z,27.98
2018-08-04T10:01:21.816Z,26.43
2018-08-04T10:03:50.523Z,31.50
2018-08-04T10:06:19.285Z,28.27
2018-08-04T10:08:47.996Z,27.92
2018-08-04T10:11:16.816Z,24.55
2018-08-04T10:13:45.532Z,27.17
2018-08-04T10:16:14.217Z,24.71
2018-08-04T10:18:42.957Z,23.80
2018-08-04T10:21:11.794Z,23.66
2018-08-04T10:23:40.822Z,22.76
2018-08-04T10:26:09.589Z,26.98
2018-08-04T10:28:38.314Z,24.48
2018-08-04T10:31:07.170Z,23.37
2018-08-04T10:33:36.230Z,22.90
2018-08-04T10:36:04.914Z,25.39
2018-08-04T10:38:33.679Z,23.48
2018-08-04T10:41:02.389Z,22.09
2018-08-04T10:43:31.135Z,22.60
2018-08-04T10:45:59.853Z,25.68
2018-08-04T10:48:28.601Z,23.24
2018-08-04T10:50:57.377Z,22.43
2018-08-04T10:53:26.091Z,23.88
2018-08-04T10:55:54.818Z,24.76
2018-08-04T10:58:23.580Z,26.08
2018-08-04T11:00:52.307Z,25.06
2018-08-04T11:03:21.005Z,28.32
2018-08-04T11:05:49.777Z,24.77
2018-08-04T11:08:23.943Z,27.04
2018-08-04T11:10:52.687Z,25.10
2018-08-04T11:13:21.375Z,25.42
2018-08-04T11:15:50.089Z,25.79
2018-08-04T11:18:18.815Z,26.46
2018-08-04T11:20:47.527Z,26.05
2018-08-04T11:23:16.270Z,24.41
2018-08-04T11:25:44.997Z,26.41
2018-08-04T11:28:13.828Z,26.78
2018-08-04T11:30:42.533Z,28.62
2018-08-04T11:33:11.221Z,28.81
2018-08-04T11:35:39.925Z,25.78
2018-08-04T11:38:08.871Z,27.47
2018-08-04T11:40:37.599Z,28.12
2018-08-04T11:43:06.369Z,24.24
2018-08-04T11:45:35.068Z,23.37
2018-08-04T11:48:03.785Z,27.06
2018-08-04T11:50:32.476Z,25.56
2018-08-04T11:53:01.211Z,26.69
2018-08-04T11:55:29.959Z,23.93
2018-08-04T11:57:58.758Z,25.76
2018-08-04T12:00:27.468Z,24.09
2018-08-04T12:02:56.177Z,22.55
2018-08-04T12:05:24.923Z,21.08
2018-08-04T12:07:53.637Z,20.12
2018-08-04T12:10:22.383Z,21.73
2018-08-04T12:12:51.109Z,22.03
2018-08-04T12:15:19.847Z,22.58
2018-08-04T12:17:48.544Z,25.05
2018-08-04T12:20:17.346Z,25.30
2018-08-04T12:22:46.071Z,25.16
2018-08-04T12:25:16.158Z,27.51
2018-08-04T12:27:47.465Z,24.73
2018-08-04T12:30:18.238Z,28.11
2018-08-04T12:32:50.000Z,25.93
2018-08-04T12:35:18.917Z,27.24
2018-08-04T12:37:47.897Z,26.54
2018-08-04T12:40:16.866Z,27.60
2018-08-04T12:42:45.590Z,25.26
2018-08-04T12:45:14.352Z,26.18
2018-08-04T12:47:43.091Z,23.15
2018-08-04T12:50:11.856Z,23.08
2018-08-04T12:52:40.602Z,23.40
2018-08-04T12:55:09.322Z,24.84
2018-08-04T12:57:38.072Z,25.76
2018-08-04T13:00:07.525Z,28.37
2018-08-04T13:02:36.311Z,25.79
2018-08-04T13:05:05.898Z,26.09
2018-08-04T13:07:34.634Z,28.72
2018-08-04T13:10:03.454Z,29.27
2018-08-04T13:12:32.189Z,29.29
2018-08-04T13:15:00.925Z,30.72
2018-08-04T13:17:29.648Z,30.38
2018-08-04T13:19:58.374Z,31.78
2018-08-04T13:22:27.128Z,31.79
2018-08-04T13:24:56.257Z,33.67
2018-08-04T13:27:25.189Z,31.42
2018-08-04T13:29:53.904Z,34.95
2018-08-04T13:32:22.605Z,36.49
2018-08-04T13:34:51.368Z,35.00
2018-08-04T13:37:20.134Z,33.95
2018-08-04T13:39:48.825Z,32.44
2018-08-04T13:42:17.530Z,33.38
2018-08-04T13:44:46.239Z,34.49
2018-08-04T13:47:14.945Z,34.76
2018-08-04T13:49:43.657Z,35.03
2018-08-04T13:52:12.385Z,35.27
2018-08-04T13:54:41.095Z,35.22
2018-08-04T13:57:09.969Z,36.57
2018-08-04T13:59:38.794Z,35.29
2018-08-04T14:02:07.612Z,39.09
2018-08-04T14:04:36.389Z,38.01
2018-08-04T14:07:05.141Z,41.94
2018-08-04T14:09:33.922Z,43.16
2018-08-04T14:12:02.689Z,37.05
2018-08-04T14:14:31.414Z,37.90
2018-08-04T14:17:00.123Z,37.87
2018-08-04T14:19:28.882Z,38.01
2018-08-04T14:21:57.592Z,40.18
2018-08-04T14:24:26.337Z,39.71
2018-08-04T14:26:55.072Z,41.03
2018-08-04T14:29:23.798Z,41.74
2018-08-04T14:31:52.638Z,41.55
2018-08-04T14:34:21.366Z,39.85
2018-08-04T14:36:50.099Z,42.45
2018-08-04T14:39:18.918Z,39.88
2018-08-04T14:41:47.747Z,42.15
2018-08-04T14:44:16.453Z,42.35
2018-08-04T14:46:45.160Z,44.14
2018-08-04T14:49:14.005Z,41.16
2018-08-04T14:51:42.722Z,43.40
2018-08-04T14:54:11.457Z,41.72
2018-08-04T14:56:40.150Z,43.85
2018-08-04T14:59:08.993Z,44.14
2018-08-04T15:01:37.781Z,44.71
2018-08-04T15:04:06.750Z,47.04
2018-08-04T15:06:35.486Z,45.63
2018-08-04T15:09:05.862Z,49.58
2018-08-04T15:11:34.705Z,48.68
2018-08-04T15:14:03.433Z,47.04
2018-08-04T15:16:32.210Z,48.37
2018-08-04T15:19:01.086Z,48.06
2018-08-04T15:21:29.819Z,50.16
2018-08-04T15:23:58.543Z,50.88
2018-08-04T15:26:27.273Z,51.99
2018-08-04T15:28:55.983Z,51.71
2018-08-04T15:31:25.207Z,52.86
2018-08-04T15:33:55.030Z,54.45
2018-08-04T15:36:25.180Z,54.21
2018-08-04T15:38:53.982Z,59.46
2018-08-04T15:41:22.694Z,59.83
2018-08-04T15:43:51.390Z,59.49
2018-08-04T15:46:21.195Z,62.91
2018-08-04T15:48:49.916Z,62.71
2018-08-04T15:51:18.817Z,65.39
2018-08-04T15:53:47.537Z,65.14
2018-08-04T15:56:16.245Z,63.40
2018-08-04T15:58:45.008Z,63.84
2018-08-04T16:01:13.742Z,64.71
2018-08-04T16:03:42.530Z,64.20
2018-08-04T16:06:11.357Z,64.86
2018-08-04T16:08:40.082Z,64.74
2018-08-04T16:11:08.824Z,66.24
2018-08-04T16:13:37.641Z,66.58
2018-08-04T16:16:06.416Z,67.37
2018-08-04T16:18:35.150Z,64.73
2018-08-04T16:21:03.868Z,66.63
2018-08-04T16:23:32.589Z,69.47
2018-08-04T16:26:01.321Z,66.52
2018-08-04T16:28:30.079Z,67.71
2018-08-04T16:30:58.829Z,70.37
2018-08-04T16:33:27.609Z,71.38
2018-08-04T16:35:56.374Z,72.58
2018-08-04T16:38:25.075Z,75.31
2018-08-04T16:40:53.813Z,75.46
2018-08-04T16:43:22.711Z,72.56
2018-08-04T16:45:51.422Z,75.04
2018-08-04T16:48:20.122Z,73.43
2018-08-04T16:50:48.866Z,76.63
2018-08-04T16:53:17.609Z,74.52
2018-08-04T16:55:46.340Z,77.92
2018-08-04T16:58:15.068Z,75.78
2018-08-04T17:00:43.793Z,76.68
2018-08-04T17:03:12.606Z,79.42
2018-08-04T17:05:41.380Z,80.47
2018-08-04T17:08:10.138Z,81.65
2018-08-04T17:10:38.869Z,83.20
2018-08-04T17:13:07.578Z,85.43
2018-08-04T17:15:36.306Z,84.90
2018-08-04T17:18:05.354Z,86.39
2018-08-04T17:20:34.076Z,84.88
2018-08-04T17:23:02.815Z,86.36
2018-08-04T17:25:31.575Z,87.81
2018-08-04T17:28:00.498Z,87.70
2018-08-04T17:30:29.289Z,87.66
2018-08-04T17:32:57.985Z,86.17
2018-08-04T17:35:26.943Z,88.45
2018-08-04T17:37:55.953Z,88.61
2018-08-04T17:40:24.950Z,88.13
2018-08-04T17:42:53.808Z,88.53
2018-08-04T17:45:22.545Z,88.17
2018-08-04T17:47:51.273Z,87.39
2018-08-04T17:50:20.133Z,87.35
2018-08-04T17:52:48.957Z,88.23
2018-08-04T17:55:17.723Z,89.08
2018-08-04T17:57:46.445Z,90.06
2018-08-04T18:00:15.173Z,90.03
2018-08-04T18:02:44.002Z,90.70
2018-08-04T18:05:12.762Z,89.59
2018-08-04T18:07:41.582Z,89.04
2018-08-04T18:10:10.289Z,90.30
2018-08-04T18:12:39.116Z,91.57
2018-08-04T18:15:08.233Z,92.75
2018-08-04T18:17:36.946Z,93.66
2018-08-04T18:20:05.724Z,95.07
2018-08-04T18:22:34.445Z,94.08
2018-08-04T18:25:03.188Z,95.38
2018-08-04T18:27:31.990Z,93.97
2018-08-04T18:30:00.764Z,94.20
2018-08-04T18:32:29.478Z,93.95
2018-08-04T18:34:58.193Z,93.38
2018-08-04T18:37:26.985Z,93.67
2018-08-04T18:39:55.752Z,94.85
2018-08-04T18:42:24.472Z,94.37
2018-08-04T18:44:53.258Z,95.11
2018-08-04T18:47:21.984Z,94.96
2018-08-04T18:49:50.757Z,94.62
2018-08-04T18:52:19.496Z,95.54
2018-08-04T18:54:48.275Z,95.53
2018-08-04T18:57:17.008Z,96.58
2018-08-04T18:59:45.816Z,96.23
2018-08-04T19:02:14.593Z,96.93
2018-08-04T19:04:44.781Z,97.62
2018-08-04T19:07:13.552Z,97.76
2018-08-04T19:09:42.353Z,99.19
2018-08-04T19:12:11.133Z,99.03
2018-08-04T19:14:39.891Z,99.38
2018-08-04T19:17:08.648Z,98.69
2018-08-04T19:19:37.470Z,99.80
2018-08-04T19:22:06.262Z,99.77
2018-08-04T19:24:35.144Z,100.00
2018-08-04T19:27:03.938Z,100.00
2018-08-04T19:29:32.757Z,100.00
2018-08-04T19:32:01.561Z,100.00
2018-08-04T19:34:30.445Z,100.00
2018-08-04T19:36:59.213Z,100.00
2018-08-04T19:39:27.950Z,100.00
2018-08-04T19:41:56.705Z,100.00
2018-08-04T19:44:25.519Z,100.00
2018-08-04T19:46:54.346Z,100.00
2018-08-04T19:49:23.103Z,100.00
2018-08-04T19:51:51.834Z,100.00
2018-08-04T19:54:20.573Z,100.00
2018-08-04T19:56:49.314Z,100.00
2018-08-04T19:59:18.066Z,100.00
2018-08-04T20:01:46.801Z,100.00
2018-08-04T20:04:15.543Z,100.00
2018-08-04T20:06:44.390Z,100.00
2018-08-04T20:09:13.125Z,100.00
2018-08-04T20:11:41.852Z,100.00
2018-08-04T20:14:10.573Z,100.00
2018-08-04T20:16:39.326Z,100.00
2018-08-04T20:19:08.077Z,100.00
2018-08-04T20:21:36.812Z,100.00
2018-08-04T20:24:05.603Z,100.00
2018-08-04T20:26:34.337Z,100.00
2018-08-04T20:29:03.064Z,100.00
2018-08-04T20:31:31.827Z,100.00
2018-08-04T20:34:00.686Z,100.00
2018-08-04T20:36:29.452Z,100.00
2018-08-04T20:38:58.166Z,100.00
2018-08-04T20:41:26.936Z,100.00
2018-08-04T20:43:55.677Z,100.00
2018-08-04T20:46:24.485Z,100.00
2018-08-04T20:48:53.476Z,100.00
2018-08-04T20:51:22.194Z,100.00
2018-08-04T20:53:50.914Z,100.00
2018-08-04T20:56:19.629Z,100.00
2018-08-04T20:58:48.323Z,100.00
2018-08-04T21:01:28.063Z,100.00
2018-08-04T21:03:56.831Z,100.00
2018-08-04T21:06:25.581Z,100.00
2018-08-04T21:08:54.484Z,100.00
2018-08-04T21:11:23.200Z,100.00
2018-08-04T21:13:51.955Z,100.00
2018-08-04T21:16:20.739Z,100.00
2018-08-04T21:18:49.474Z,100.00
2018-08-04T21:21:18.311Z,100.00
2018-08-04T21:23:47.113Z,100.00
2018-08-04T21:26:15.861Z,100.00
2018-08-04T21:28:44.575Z,100.00
2018-08-04T21:31:13.299Z,100.00
2018-08-04T21:33:42.022Z,100.00
2018-08-04T21:36:10.723Z,100.00
2018-08-04T21:38:39.488Z,100.00
2018-08-04T21:41:08.197Z,100.00
2018-08-04T21:43:36.977Z,100.00
2018-08-04T21:46:05.716Z,100.00
2018-08-04T21:48:34.555Z,100.00
2018-08-04T21:51:03.263Z,100.00
2018-08-04T21:53:32.006Z,100.00
2018-08-04T21:56:00.874Z,100.00
2018-08-04T21:58:29.574Z,100.00
2018-08-04T22:01:03.334Z,100.00
2018-08-04T22:03:32.061Z,100.00
2018-08-04T22:06:00.809Z,100.00
2018-08-04T22:08:40.686Z,100.00
2018-08-04T22:11:09.377Z,100.00
2018-08-04T22:13:38.070Z,100.00
2018-08-04T22:16:06.984Z,100.00
2018-08-04T22:18:35.686Z,100.00
2018-08-04T22:21:04.385Z,100.00
2018-08-04T22:23:33.101Z,100.00
2018-08-04T22:26:01.869Z,100.00
2018-08-04T22:28:30.642Z,100.00
2018-08-04T22:30:59.421Z,100.00
2018-08-04T22:33:28.156Z,100.00
2018-08-04T22:35:56.849Z,100.00
2018-08-04T22:38:25.558Z,100.00
2018-08-04T22:40:54.338Z,100.00
2018-08-04T22:43:23.058Z,100.00
2018-08-04T22:46:10.773Z,100.00
2018-08-04T22:48:39.591Z,100.00
2018-08-04T22:51:08.354Z,100.00
2018-08-04T22:53:37.265Z,100.00
2018-08-04T22:56:06.073Z,100.00
2018-08-04T22:58:34.800Z,100.00
2018-08-04T23:01:03.541Z,100.00
2018-08-04T23:03:32.308Z,100.00
2018-08-04T23:06:01.090Z,100.00
2018-08-04T23:08:29.792Z,100.00
2018-08-04T23:10:58.510Z,100.00
2018-08-04T23:13:27.375Z,100.00
2018-08-04T23:15:56.141Z,100.00
2018-08-04T23:18:24.926Z,100.00
2018-08-04T23:20:53.696Z,100.00
2018-08-04T23:23:22.417Z,100.00
2018-08-04T23:25:51.171Z,100.00
2018-08-04T23:28:19.953Z,100.00
2018-08-04T23:30:48.696Z,100.00
2018-08-04T23:33:17.418Z,100.00
2018-08-04T23:35:46.139Z,100.00
2018-08-04T23:38:15.066Z,100.00
2018-08-04T23:40:43.810Z,100.00
2018-08-04T23:43:12.650Z,100.00
2018-08-04T23:45:41.393Z,100.00
2018-08-04T23:48:10.131Z,100.00
2018-08-04T23:50:38.849Z,100.00
2018-08-04T23:53:07.592Z,100.00
2018-08-04T23:55:42.705Z,100.00
2018-08-04T23:58:11.502Z,100.00
